Flugplatz Traben-Trarbach/Mont Royal

Für EDRM sind keine METAR/TAF Berichte vorhanden.
Es werden die Flugwettermeldungen vom Flugplatz Frankfurt-Hahn in 11 km Entfernung angezeigt.

Bericht für EDFH

vom 28.09. um 21:20 UTC

Wind 6 kt aus 140°

Sichtweite 10 km oder mehr

gute Sicht, keine Wolken < 5000 ft, keine CB, keine Wettererscheinungen (CAVOK)

Temperatur 10.0°C

Taupunkt 7.0°C

Luftfeuchtigkeit 82%

Luftdruck 1020 hPa

EDFH 282120Z 14006KT 130V200 CAVOK 10/07 Q1020

Prognose für EDFH

vom 28.09. um 17:00 UTC

Zwischen 18:00 UTC und 04:00 UTC

Wind 6 kt aus 140°

Sichtweite 10 km oder mehr

aufgelockert bewölkt in 3000 ft


Am 29.09. zwischen 04:00 und 06:00 UTC übergehend zu

Wind 8 kt aus 210°

Sichtweite 10 km oder mehr

aufgelockert bewölkt in 3000 ft


Am 29.09. zwischen 06:00 UTC und 14:00 UTC zeitweise

Sichtweite 3000 m

Regenschauer

aufgebrochene Bewölkung in 800 ft

aufgebrochene Bewölkung in 1500 ft


Am 29.09. zwischen 08:00 und 10:00 UTC übergehend zu

Wind 15 kt aus 260° in Böen 25 kt

Sichtweite 10 km oder mehr

aufgelockert bewölkt in 3000 ft


Am 29.09. zwischen 16:00 und 18:00 UTC übergehend zu

Wind 10 kt aus 260°

Sichtweite 10 km oder mehr

aufgelockert bewölkt in 3000 ft

TAF EDFH 281700Z 2818/2918 14006KT 9999 SCT030 BECMG 2904/2906 21008KT TEMPO 2906/2914 3000 SHRA BKN008 BKN015CB BECMG 2908/2910 26015G25KT BECMG 2916/2918 26010KT
Impressum